Time;durP1;ratioP1;P1;durP2;ratioP2;P2;SDS_P1;SDS_P2;PMS_P1;PMS_P2;Temp;Humidity;BMP_temperature;BMP_pressure;BME280_temperature;BME280_humidity;BME280_pressure;Samples;Min_cycle;Max_cycle;Signal;HPM_P1;HPM_P2
2022/01/28 00:01:15;;;;;;;63.57;33.27;;;;;;;;;;4990963;28;20074;-61
2022/01/28 00:03:41;;;;;;;61.77;34.57;;;;;;;;;;4990661;28;20074;-62
2022/01/28 00:06:07;;;;;;;74.87;36.50;;;;;;;;;;4989364;28;20031;-61
2022/01/28 00:08:33;;;;;;;67.10;34.83;;;;;;;;;;4999052;28;20124;-62
2022/01/28 00:10:59;;;;;;;68.27;36.53;;;;;;;;;;4993556;28;20456;-62
2022/01/28 00:13:32;;;;;;;59.60;34.87;;;;;;;;;;4989612;28;20475;-61
2022/01/28 00:16:23;;;;;;;65.30;33.77;;;;;;;;;;4997171;28;20042;-62
2022/01/28 00:19:28;;;;;;;59.23;33.00;;;;;;;;;;5005331;28;20132;-61
2022/01/28 00:40:28;;;;;;;51.97;32.73;;;;;;;;;;4999989;28;20096;-63
2022/01/28 00:42:54;;;;;;;57.57;31.97;;;;;;;;;;4996778;28;20040;-62
2022/01/28 00:45:21;;;;;;;64.43;33.70;;;;;;;;;;4993344;28;20047;-61
2022/01/28 00:47:47;;;;;;;66.83;35.50;;;;;;;;;;4996797;28;20045;-62
2022/01/28 00:50:13;;;;;;;61.43;34.03;;;;;;;;;;4988579;28;20049;-62
2022/01/28 00:52:39;;;;;;;59.67;32.83;;;;;;;;;;4992216;28;20042;-61
2022/01/28 00:55:06;;;;;;;63.00;35.77;;;;;;;;;;4992145;28;20403;-62
2022/01/28 00:57:32;;;;;;;65.03;34.93;;;;;;;;;;4988306;28;20054;-62
2022/01/28 00:59:59;;;;;;;66.70;34.73;;;;;;;;;;4992548;28;20481;-61
2022/01/28 01:02:25;;;;;;;73.57;37.50;;;;;;;;;;4994076;28;20089;-62
2022/01/28 01:04:51;;;;;;;69.57;37.27;;;;;;;;;;4997751;28;20046;-62
2022/01/28 01:07:17;;;;;;;71.27;35.83;;;;;;;;;;5010387;28;20037;-63
2022/01/28 01:09:45;;;;;;;70.53;36.47;;;;;;;;;;5008251;28;20041;-62
2022/01/28 01:12:11;;;;;;;65.70;35.27;;;;;;;;;;5004826;28;20061;-63
2022/01/28 01:14:37;;;;;;;73.23;37.53;;;;;;;;;;4995284;28;20081;-62
2022/01/28 01:19:38;;;;;;;73.73;39.57;;;;;;;;;;4975980;28;20085;-63
2022/01/28 01:22:05;;;;;;;71.63;37.13;;;;;;;;;;4986098;28;20045;-62
2022/01/28 01:24:36;;;;;;;71.43;38.53;;;;;;;;;;4990848;28;20034;-60
2022/01/28 01:27:03;;;;;;;61.90;36.17;;;;;;;;;;4996635;28;20038;-62
2022/01/28 01:29:29;;;;;;;66.60;36.33;;;;;;;;;;5006476;28;20030;-62
2022/01/28 01:32:03;;;;;;;64.27;36.07;;;;;;;;;;5007392;28;20456;-61
2022/01/28 01:34:29;;;;;;;63.67;36.03;;;;;;;;;;5006958;28;20054;-61
2022/01/28 01:36:55;;;;;;;57.23;34.60;;;;;;;;;;5005327;28;20300;-62
2022/01/28 01:39:25;;;;;;;53.27;32.53;;;;;;;;;;5000181;28;20057;-61
2022/01/28 01:42:41;;;;;;;55.83;33.83;;;;;;;;;;5006476;28;20068;-61
2022/01/28 01:52:28;;;;;;;54.78;32.55;;;;;;;;;;5006690;28;20410;-62
2022/01/28 01:54:54;;;;;;;57.57;34.97;;;;;;;;;;5005764;28;20045;-61
2022/01/28 01:57:20;;;;;;;56.57;33.83;;;;;;;;;;5011684;28;20112;-61
2022/01/28 01:59:48;;;;;;;54.43;32.07;;;;;;;;;;5009322;28;20487;-62
2022/01/28 02:02:14;;;;;;;55.33;33.60;;;;;;;;;;5005850;28;20258;-62
2022/01/28 02:04:40;;;;;;;53.60;32.30;;;;;;;;;;5005475;28;20072;-62
2022/01/28 02:07:07;;;;;;;56.27;32.73;;;;;;;;;;5004725;28;20034;-62
2022/01/28 02:09:33;;;;;;;54.80;33.37;;;;;;;;;;5005192;28;20037;-62
2022/01/28 02:11:59;;;;;;;56.43;34.27;;;;;;;;;;5006205;28;20030;-62
2022/01/28 02:14:25;;;;;;;55.73;34.27;;;;;;;;;;4990688;28;20141;-62
2022/01/28 02:16:51;;;;;;;56.70;34.00;;;;;;;;;;4989305;28;20555;-62
2022/01/28 02:19:17;;;;;;;54.07;33.60;;;;;;;;;;5009007;28;20056;-62
2022/01/28 02:21:47;;;;;;;55.93;34.13;;;;;;;;;;5006711;28;20073;-62
2022/01/28 02:24:16;;;;;;;58.83;32.93;;;;;;;;;;5008531;28;20038;-62
2022/01/28 02:26:42;;;;;;;56.80;34.33;;;;;;;;;;5001862;28;20030;-62
2022/01/28 02:29:13;;;;;;;55.87;34.77;;;;;;;;;;5022514;28;20042;-62
2022/01/28 02:31:39;;;;;;;51.23;33.63;;;;;;;;;;4980204;28;20053;-62
2022/01/28 02:34:09;;;;;;;55.23;33.17;;;;;;;;;;4985394;28;20130;-62
2022/01/28 02:36:35;;;;;;;56.80;33.77;;;;;;;;;;4984073;28;20133;-62
2022/01/28 02:39:02;;;;;;;53.30;33.00;;;;;;;;;;4988116;28;20665;-61
2022/01/28 02:41:33;;;;;;;57.07;33.53;;;;;;;;;;4986638;28;20077;-61
2022/01/28 02:44:22;;;;;;;55.87;34.93;;;;;;;;;;4999541;28;20451;-62
2022/01/28 02:47:01;;;;;;;52.17;32.97;;;;;;;;;;5002999;28;20041;-59
2022/01/28 02:49:33;;;;;;;52.60;32.30;;;;;;;;;;5006447;28;20054;-63
2022/01/28 02:52:01;;;;;;;54.47;34.23;;;;;;;;;;5003590;28;20100;-62
2022/01/28 02:54:27;;;;;;;55.53;33.67;;;;;;;;;;5003370;28;20054;-62
2022/01/28 02:56:59;;;;;;;59.00;35.03;;;;;;;;;;5034370;28;20044;-62
2022/01/28 02:59:25;;;;;;;52.50;34.50;;;;;;;;;;5006723;28;20046;-61
2022/01/28 03:01:51;;;;;;;57.03;36.17;;;;;;;;;;4989678;28;20049;-62
2022/01/28 03:04:51;;;;;;;61.70;36.37;;;;;;;;;;4989004;28;20042;-63
2022/01/28 03:07:06;;;;;;;59.77;36.50;;;;;;;;;;4995623;28;20034;-61
2022/01/28 03:09:52;;;;;;;62.00;37.70;;;;;;;;;;4989944;28;20133;-61
2022/01/28 03:12:21;;;;;;;61.03;35.23;;;;;;;;;;4990701;28;20038;-61
2022/01/28 03:15:04;;;;;;;61.13;36.57;;;;;;;;;;4988435;28;20108;-61
2022/01/28 03:20:18;;;;;;;55.80;35.90;;;;;;;;;;5002932;28;20049;-63
2022/01/28 03:22:44;;;;;;;54.15;34.53;;;;;;;;;;4993054;28;20034;-63
2022/01/28 03:25:10;;;;;;;59.70;37.27;;;;;;;;;;4988517;28;20039;-62
2022/01/28 03:30:06;;;;;;;59.47;38.27;;;;;;;;;;4990332;28;20041;-62
2022/01/28 03:32:32;;;;;;;56.73;34.50;;;;;;;;;;4985339;28;20392;-62
2022/01/28 03:34:58;;;;;;;59.03;36.30;;;;;;;;;;4990385;28;20046;-63
2022/01/28 03:37:24;;;;;;;59.13;36.77;;;;;;;;;;5006536;28;20041;-62
2022/01/28 03:39:50;;;;;;;57.23;37.50;;;;;;;;;;5004943;28;20037;-62
2022/01/28 03:42:16;;;;;;;62.43;38.43;;;;;;;;;;4997345;28;20435;-63
2022/01/28 03:44:42;;;;;;;56.50;37.40;;;;;;;;;;5005021;28;20038;-63
2022/01/28 03:47:08;;;;;;;60.80;37.23;;;;;;;;;;5024860;28;20049;-62
2022/01/28 03:49:34;;;;;;;56.07;35.80;;;;;;;;;;5006363;28;20392;-62
2022/01/28 03:52:00;;;;;;;57.03;36.87;;;;;;;;;;5004860;28;20034;-62
2022/01/28 03:54:26;;;;;;;59.77;36.47;;;;;;;;;;5038252;28;20050;-62
2022/01/28 03:56:52;;;;;;;59.50;38.00;;;;;;;;;;5002347;28;20038;-62
2022/01/28 03:59:18;;;;;;;57.43;36.50;;;;;;;;;;5005270;28;20499;-59
2022/01/28 04:01:47;;;;;;;54.80;35.53;;;;;;;;;;5005241;28;20476;-63
2022/01/28 04:12:32;;;;;;;55.10;36.23;;;;;;;;;;4983829;28;20008;-62
2022/01/28 04:15:08;;;;;;;52.13;34.20;;;;;;;;;;4986190;28;20051;-62
2022/01/28 04:17:34;;;;;;;53.10;35.37;;;;;;;;;;4993769;28;20132;-62
2022/01/28 04:20:00;;;;;;;53.03;34.60;;;;;;;;;;4997468;28;20089;-62
2022/01/28 04:22:27;;;;;;;49.97;33.00;;;;;;;;;;5041141;28;20041;-62
2022/01/28 04:24:53;;;;;;;56.60;33.80;;;;;;;;;;5008562;28;20037;-62
2022/01/28 04:27:19;;;;;;;52.20;32.50;;;;;;;;;;5008141;28;20108;-60
2022/01/28 04:29:45;;;;;;;53.93;33.83;;;;;;;;;;5010357;28;20045;-62
2022/01/28 04:32:11;;;;;;;50.63;33.67;;;;;;;;;;5007432;28;20113;-62
2022/01/28 04:34:38;;;;;;;51.67;33.60;;;;;;;;;;5010131;28;20510;-63
2022/01/28 04:37:32;;;;;;;50.80;33.00;;;;;;;;;;5007581;28;20447;-62
2022/01/28 04:40:11;;;;;;;50.03;33.80;;;;;;;;;;5001118;28;20033;-62
2022/01/28 04:45:32;;;;;;;51.60;31.85;;;;;;;;;;5002309;28;20471;-62
2022/01/28 05:06:42;;;;;;;46.03;31.50;;;;;;;;;;4987433;28;20057;-62
2022/01/28 05:12:48;;;;;;;34.90;22.60;;;;;;;;;;4991510;28;20053;-61
2022/01/28 05:15:28;;;;;;;41.87;29.13;;;;;;;;;;4990827;28;20046;-61
2022/01/28 05:28:56;;;;;;;45.70;29.60;;;;;;;;;;4992788;28;20484;-61
2022/01/28 05:31:22;;;;;;;48.43;30.03;;;;;;;;;;4973851;28;20043;-61
2022/01/28 05:33:49;;;;;;;47.13;30.27;;;;;;;;;;4993241;28;20047;-62
2022/01/28 05:36:15;;;;;;;44.90;27.23;;;;;;;;;;4989307;28;20476;-62
2022/01/28 05:38:41;;;;;;;41.87;30.13;;;;;;;;;;4982796;28;20039;-62
2022/01/28 05:41:07;;;;;;;44.67;28.90;;;;;;;;;;5008510;28;20034;-62
2022/01/28 05:43:33;;;;;;;43.43;27.97;;;;;;;;;;4993494;28;20034;-62
2022/01/28 05:45:59;;;;;;;41.80;27.83;;;;;;;;;;4998792;28;20096;-62
2022/01/28 05:48:25;;;;;;;43.10;29.40;;;;;;;;;;4986533;28;20038;-62
2022/01/28 05:50:51;;;;;;;46.47;29.63;;;;;;;;;;4994754;28;20451;-61
2022/01/28 05:53:17;;;;;;;42.37;28.57;;;;;;;;;;5007769;28;20052;-63
2022/01/28 05:55:43;;;;;;;45.90;28.60;;;;;;;;;;5008236;28;20390;-62
2022/01/28 05:58:09;;;;;;;45.67;29.37;;;;;;;;;;4990012;28;20046;-62
2022/01/28 06:00:35;;;;;;;43.20;29.20;;;;;;;;;;5008791;28;20051;-62
2022/01/28 06:03:01;;;;;;;44.03;28.07;;;;;;;;;;4989084;28;20042;-62
2022/01/28 06:05:30;;;;;;;43.57;26.77;;;;;;;;;;4999698;28;20096;-62
2022/01/28 06:07:59;;;;;;;44.97;29.23;;;;;;;;;;4985867;28;20070;-63
2022/01/28 06:10:25;;;;;;;47.33;30.13;;;;;;;;;;4987510;28;20039;-62
2022/01/28 06:12:51;;;;;;;44.97;29.80;;;;;;;;;;4982345;28;20096;-61
2022/01/28 06:15:17;;;;;;;42.20;28.13;;;;;;;;;;5008099;28;20046;-62
2022/01/28 06:17:43;;;;;;;46.23;28.47;;;;;;;;;;5002314;28;20074;-62
2022/01/28 06:20:11;;;;;;;46.40;30.17;;;;;;;;;;5006396;28;20108;-62
2022/01/28 06:22:40;;;;;;;44.37;30.10;;;;;;;;;;5007339;28;20617;-62
2022/01/28 06:25:07;;;;;;;42.80;27.90;;;;;;;;;;5007360;28;20096;-62
2022/01/28 06:27:33;;;;;;;46.13;29.20;;;;;;;;;;5002075;28;20072;-62
2022/01/28 06:30:19;;;;;;;45.27;29.07;;;;;;;;;;4986986;28;20046;-63
2022/01/28 06:32:45;;;;;;;42.33;26.87;;;;;;;;;;4991983;28;20057;-63
2022/01/28 06:35:11;;;;;;;40.83;28.17;;;;;;;;;;4990175;28;20049;-61
2022/01/28 06:37:38;;;;;;;46.73;28.47;;;;;;;;;;4986821;28;20042;-62
2022/01/28 06:40:06;;;;;;;41.13;27.10;;;;;;;;;;5005150;28;20038;-62
2022/01/28 06:42:32;;;;;;;47.77;28.87;;;;;;;;;;5000719;28;20049;-62
2022/01/28 06:44:58;;;;;;;44.80;26.90;;;;;;;;;;5006654;28;20052;-62
2022/01/28 06:47:24;;;;;;;41.80;26.93;;;;;;;;;;5007617;28;20053;-62
2022/01/28 06:49:50;;;;;;;43.43;27.33;;;;;;;;;;5016314;28;20038;-61
2022/01/28 06:52:17;;;;;;;40.83;27.70;;;;;;;;;;5011029;28;20038;-63
2022/01/28 06:54:43;;;;;;;43.37;28.53;;;;;;;;;;5027060;28;20404;-63
2022/01/28 06:57:09;;;;;;;42.30;27.47;;;;;;;;;;5012963;28;20066;-63
2022/01/28 06:59:35;;;;;;;43.10;28.07;;;;;;;;;;5015455;28;20037;-62
2022/01/28 07:02:01;;;;;;;41.87;26.93;;;;;;;;;;5011899;28;20454;-62
2022/01/28 07:04:27;;;;;;;43.17;26.97;;;;;;;;;;5009879;28;20039;-62
2022/01/28 07:06:53;;;;;;;41.80;27.23;;;;;;;;;;5014948;28;20034;-62
2022/01/28 07:09:19;;;;;;;45.37;27.80;;;;;;;;;;5018051;28;20038;-59
2022/01/28 07:11:45;;;;;;;42.67;26.40;;;;;;;;;;5006474;28;20121;-63
2022/01/28 07:14:11;;;;;;;44.03;27.20;;;;;;;;;;5003317;28;20041;-63
2022/01/28 07:16:37;;;;;;;40.67;26.70;;;;;;;;;;5007971;28;20455;-62
2022/01/28 07:19:04;;;;;;;43.63;27.83;;;;;;;;;;5005093;28;20487;-62
2022/01/28 07:21:30;;;;;;;40.43;26.27;;;;;;;;;;4996052;28;20049;-62
2022/01/28 07:23:56;;;;;;;45.03;27.00;;;;;;;;;;4981609;28;20096;-62
2022/01/28 07:26:22;;;;;;;43.67;27.63;;;;;;;;;;4988239;28;20042;-61
2022/01/28 07:28:49;;;;;;;41.23;26.60;;;;;;;;;;4989671;28;20113;-62
2022/01/28 07:31:18;;;;;;;45.33;27.03;;;;;;;;;;5001962;28;20136;-61
2022/01/28 07:33:44;;;;;;;40.60;26.67;;;;;;;;;;5008009;28;20154;-61
2022/01/28 07:36:10;;;;;;;42.27;27.20;;;;;;;;;;5000998;28;20495;-62
2022/01/28 07:38:36;;;;;;;45.47;26.47;;;;;;;;;;4986092;28;20121;-61
2022/01/28 07:41:02;;;;;;;39.57;24.67;;;;;;;;;;5021366;28;20453;-62
2022/01/28 07:43:28;;;;;;;42.93;26.13;;;;;;;;;;4982544;28;20090;-63
2022/01/28 07:45:55;;;;;;;42.97;25.93;;;;;;;;;;4987058;28;20038;-64
2022/01/28 07:48:21;;;;;;;41.47;28.10;;;;;;;;;;4991720;28;20042;-61
2022/01/28 07:50:46;;;;;;;45.27;25.87;;;;;;;;;;4982145;28;20038;-63
2022/01/28 07:53:16;;;;;;;41.17;26.43;;;;;;;;;;4984797;28;20497;-63
2022/01/28 07:55:43;;;;;;;41.87;26.23;;;;;;;;;;4992898;28;20072;-62
2022/01/28 07:58:08;;;;;;;43.17;26.53;;;;;;;;;;4998406;28;20053;-63
2022/01/28 08:00:53;;;;;;;39.43;26.80;;;;;;;;;;4988567;28;20053;-63
2022/01/28 08:03:19;;;;;;;42.35;25.77;;;;;;;;;;4998063;28;20034;-61
2022/01/28 08:05:45;;;;;;;39.83;25.17;;;;;;;;;;4997123;28;20046;-62
2022/01/28 08:08:13;;;;;;;42.23;26.33;;;;;;;;;;4988313;28;20464;-62
2022/01/28 08:10:39;;;;;;;40.70;25.77;;;;;;;;;;4991477;28;20052;-62
2022/01/28 08:13:05;;;;;;;41.67;26.60;;;;;;;;;;4992564;28;20050;-63
2022/01/28 08:15:32;;;;;;;40.80;26.47;;;;;;;;;;5002443;28;20598;-62
2022/01/28 08:17:58;;;;;;;42.20;27.17;;;;;;;;;;5002468;28;20124;-62
2022/01/28 08:20:24;;;;;;;42.93;26.37;;;;;;;;;;5015619;28;20053;-61
2022/01/28 08:22:52;;;;;;;45.17;27.50;;;;;;;;;;5009268;28;20069;-61
2022/01/28 08:25:19;;;;;;;40.37;27.53;;;;;;;;;;5010416;28;20048;-62
2022/01/28 08:27:45;;;;;;;44.67;27.70;;;;;;;;;;5010066;28;20061;-62
2022/01/28 08:30:12;;;;;;;44.80;26.67;;;;;;;;;;4998387;28;20034;-62
2022/01/28 08:32:38;;;;;;;44.37;27.43;;;;;;;;;;5003893;28;20050;-63
2022/01/28 08:35:05;;;;;;;38.20;26.60;;;;;;;;;;5007541;28;20247;-63
2022/01/28 08:37:31;;;;;;;40.27;26.87;;;;;;;;;;5007101;28;20077;-63
2022/01/28 08:39:57;;;;;;;42.97;27.60;;;;;;;;;;5010288;28;20046;-63
2022/01/28 08:42:23;;;;;;;40.43;26.40;;;;;;;;;;5000509;28;20054;-63
2022/01/28 08:44:49;;;;;;;37.23;25.63;;;;;;;;;;5010539;28;20037;-57
2022/01/28 08:47:15;;;;;;;37.60;25.47;;;;;;;;;;5006775;28;20046;-64
2022/01/28 08:49:41;;;;;;;43.77;27.07;;;;;;;;;;5009989;28;20502;-63
2022/01/28 08:52:07;;;;;;;39.87;24.67;;;;;;;;;;5008214;28;20037;-63
2022/01/28 08:54:33;;;;;;;42.73;25.80;;;;;;;;;;5006834;28;20467;-63
2022/01/28 08:56:59;;;;;;;41.70;24.97;;;;;;;;;;5008115;28;20038;-64
2022/01/28 08:59:25;;;;;;;43.03;26.83;;;;;;;;;;5005232;28;20042;-63
2022/01/28 09:01:51;;;;;;;39.90;26.23;;;;;;;;;;5009965;28;20033;-62
2022/01/28 09:04:18;;;;;;;41.00;26.23;;;;;;;;;;4996200;28;20039;-63
2022/01/28 09:06:44;;;;;;;40.93;26.60;;;;;;;;;;4994124;28;20045;-63
2022/01/28 09:09:10;;;;;;;43.77;26.63;;;;;;;;;;4989707;28;20042;-63
2022/01/28 09:12:04;;;;;;;41.17;26.47;;;;;;;;;;4993696;28;20034;-63
2022/01/28 09:14:30;;;;;;;41.67;27.30;;;;;;;;;;5000577;28;20046;-63
2022/01/28 09:16:56;;;;;;;37.23;24.53;;;;;;;;;;5005889;28;20034;-62
2022/01/28 09:19:23;;;;;;;37.60;25.17;;;;;;;;;;5039882;28;20396;-62
2022/01/28 09:21:49;;;;;;;43.53;29.23;;;;;;;;;;5008352;28;20261;-63
2022/01/28 09:24:15;;;;;;;39.57;25.00;;;;;;;;;;5008813;28;20034;-63
2022/01/28 09:26:41;;;;;;;38.17;24.03;;;;;;;;;;5005132;28;20038;-62
2022/01/28 09:29:07;;;;;;;37.30;25.20;;;;;;;;;;5006315;28;20038;-62
2022/01/28 09:31:33;;;;;;;35.43;24.47;;;;;;;;;;5009379;28;20045;-62
2022/01/28 09:33:59;;;;;;;36.40;23.73;;;;;;;;;;5007407;28;20053;-63
2022/01/28 09:36:25;;;;;;;37.50;24.97;;;;;;;;;;5008113;28;20049;-63
2022/01/28 09:38:51;;;;;;;35.00;23.40;;;;;;;;;;5007502;28;20033;-62
2022/01/28 09:41:17;;;;;;;34.23;24.20;;;;;;;;;;5007744;28;20034;-64
2022/01/28 09:43:44;;;;;;;40.93;25.00;;;;;;;;;;5005439;28;20034;-63
2022/01/28 09:46:10;;;;;;;41.33;24.10;;;;;;;;;;5003241;28;20037;-63
2022/01/28 09:48:36;;;;;;;35.17;22.90;;;;;;;;;;4999901;28;20050;-62
2022/01/28 09:51:03;;;;;;;39.70;23.60;;;;;;;;;;5003712;28;20046;-62
2022/01/28 09:53:29;;;;;;;30.67;21.63;;;;;;;;;;5001445;28;20056;-63
2022/01/28 09:55:56;;;;;;;33.43;19.80;;;;;;;;;;5000112;28;20392;-62
2022/01/28 09:58:22;;;;;;;28.97;19.83;;;;;;;;;;4992223;28;20125;-61
2022/01/28 10:00:48;;;;;;;33.47;18.53;;;;;;;;;;4989572;28;20054;-62
2022/01/28 10:03:15;;;;;;;29.33;18.27;;;;;;;;;;4987435;28;20038;-63
2022/01/28 10:05:41;;;;;;;29.40;18.03;;;;;;;;;;4984517;28;20627;-62
2022/01/28 10:08:07;;;;;;;24.47;14.87;;;;;;;;;;4980581;28;20030;-63
2022/01/28 10:10:54;;;;;;;28.87;15.77;;;;;;;;;;4995707;28;20042;-63
2022/01/28 10:13:26;;;;;;;25.53;15.87;;;;;;;;;;4988354;28;20049;-62
2022/01/28 10:15:52;;;;;;;24.37;13.20;;;;;;;;;;4983455;28;20108;-65
2022/01/28 10:18:18;;;;;;;17.23;8.93;;;;;;;;;;4984493;28;20042;-59
2022/01/28 10:20:45;;;;;;;14.33;6.67;;;;;;;;;;4987116;28;20096;-58
2022/01/28 10:23:12;;;;;;;6.60;4.00;;;;;;;;;;4990838;28;20038;-55
2022/01/28 10:25:41;;;;;;;12.07;3.17;;;;;;;;;;4988895;28;20101;-60
2022/01/28 10:28:09;;;;;;;7.60;2.77;;;;;;;;;;4992689;28;20038;-59
2022/01/28 10:30:36;;;;;;;3.33;1.70;;;;;;;;;;4993271;28;20041;-58
2022/01/28 10:33:11;;;;;;;4.17;2.10;;;;;;;;;;4981107;28;20034;-61
2022/01/28 10:35:37;;;;;;;;;;;;;;;;;;5028754;28;20395;-57
2022/01/28 10:38:07;;;;;;;6.13;1.30;;;;;;;;;;5001670;28;19921;-57
2022/01/28 10:40:33;;;;;;;6.27;1.17;;;;;;;;;;5002371;28;20042;-59
2022/01/28 10:43:00;;;;;;;2.20;0.83;;;;;;;;;;5000439;28;20099;-59
2022/01/28 10:45:29;;;;;;;3.13;0.73;;;;;;;;;;5005011;28;20149;-58
2022/01/28 10:47:56;;;;;;;2.40;0.77;;;;;;;;;;4995788;28;20038;-59
2022/01/28 10:50:28;;;;;;;5.40;1.53;;;;;;;;;;5004302;28;20482;-58
2022/01/28 10:53:13;;;;;;;2.45;1.23;;;;;;;;;;4997065;28;20459;-59
2022/01/28 10:55:44;;;;;;;1.75;0.85;;;;;;;;;;4991976;28;20322;-58
2022/01/28 10:58:11;;;;;;;1.27;0.73;;;;;;;;;;4984536;28;20046;-59
2022/01/28 11:00:42;;;;;;;2.50;0.77;;;;;;;;;;4984641;28;20056;-58
2022/01/28 11:03:10;;;;;;;3.45;0.32;;;;;;;;;;4988093;28;20042;-58
2022/01/28 11:05:37;;;;;;;1.55;0.40;;;;;;;;;;4993800;28;20108;-60
2022/01/28 11:08:03;;;;;;;0.80;0.30;;;;;;;;;;5002641;28;20396;-58
2022/01/28 11:10:30;;;;;;;5.50;0.82;;;;;;;;;;5002154;28;20092;-60
2022/01/28 11:12:57;;;;;;;1.48;0.45;;;;;;;;;;5002686;28;20061;-59
2022/01/28 11:15:23;;;;;;;5.60;0.90;;;;;;;;;;5006560;28;20049;-59
2022/01/28 11:17:50;;;;;;;2.47;0.40;;;;;;;;;;4994937;28;20045;-57
2022/01/28 11:20:20;;;;;;;0.70;0.55;;;;;;;;;;5003475;28;20084;-59
2022/01/28 11:23:11;;;;;;;1.15;0.20;;;;;;;;;;4989434;28;20049;-60
2022/01/28 11:25:44;;;;;;;2.17;0.65;;;;;;;;;;5000378;28;20068;-60
2022/01/28 11:28:11;;;;;;;0.85;0.47;;;;;;;;;;5007372;28;20456;-60
2022/01/28 11:30:45;;;;;;;1.25;0.50;;;;;;;;;;5009137;28;20049;-60
2022/01/28 11:33:11;;;;;;;0.90;0.45;;;;;;;;;;5005973;28;20070;-60
2022/01/28 11:35:40;;;;;;;1.58;0.40;;;;;;;;;;4988862;28;20112;-59
2022/01/28 11:38:25;;;;;;;0.40;0.22;;;;;;;;;;5003596;28;20049;-59
2022/01/28 11:40:55;;;;;;;2.05;0.30;;;;;;;;;;5005020;28;20038;-59
2022/01/28 11:43:23;;;;;;;1.25;0.20;;;;;;;;;;5008771;28;20060;-59
2022/01/28 11:46:04;;;;;;;1.60;0.30;;;;;;;;;;5008974;28;20030;-60
2022/01/28 11:48:49;;;;;;;3.40;0.55;;;;;;;;;;5003018;28;20065;-59
2022/01/28 11:51:16;;;;;;;0.40;0.20;;;;;;;;;;5015626;28;20087;-61
2022/01/28 11:54:01;;;;;;;2.10;0.20;;;;;;;;;;4997745;28;20053;-59
2022/01/28 11:56:28;;;;;;;0.93;0.28;;;;;;;;;;4995185;28;20038;-59
2022/01/28 11:59:13;;;;;;;4.85;0.65;;;;;;;;;;5005465;28;20030;-59
2022/01/28 12:01:39;;;;;;;21.75;3.47;;;;;;;;;;5006094;28;20045;-60
2022/01/28 12:04:24;;;;;;;2.85;1.02;;;;;;;;;;5006562;28;20121;-60
2022/01/28 12:07:02;;;;;;;3.10;0.82;;;;;;;;;;5004119;28;20033;-57
2022/01/28 12:09:29;;;;;;;2.35;0.40;;;;;;;;;;5002888;28;20499;-60
2022/01/28 12:11:55;;;;;;;2.53;0.40;;;;;;;;;;5011495;28;20042;-59
2022/01/28 12:14:40;;;;;;;0.85;0.38;;;;;;;;;;5010976;28;20099;-60
2022/01/28 12:17:25;;;;;;;3.15;0.35;;;;;;;;;;5005143;28;20152;-59
2022/01/28 12:20:09;;;;;;;0.65;0.32;;;;;;;;;;5006960;28;20447;-59
2022/01/28 12:22:35;;;;;;;3.15;0.57;;;;;;;;;;5010873;28;20088;-60
2022/01/28 12:25:01;;;;;;;0.90;0.40;;;;;;;;;;5008676;28;20038;-61
2022/01/28 12:27:34;;;;;;;2.38;0.68;;;;;;;;;;5001878;28;20054;-60
2022/01/28 12:30:02;;;;;;;3.83;0.88;;;;;;;;;;4996517;28;20807;-60
2022/01/28 12:32:28;;;;;;;9.23;3.13;;;;;;;;;;4999165;28;20112;-60
2022/01/28 12:34:54;;;;;;;18.73;10.75;;;;;;;;;;5012095;28;20043;-58
2022/01/28 12:37:23;;;;;;;42.25;23.00;;;;;;;;;;4985366;28;20042;-58
2022/01/28 12:40:03;;;;;;;36.67;23.50;;;;;;;;;;4988217;28;20125;-60
2022/01/28 12:42:32;;;;;;;46.42;28.17;;;;;;;;;;5000983;28;20042;-60
2022/01/28 12:44:59;;;;;;;41.25;27.50;;;;;;;;;;5003224;28;20050;-59
2022/01/28 12:47:26;;;;;;;40.75;27.83;;;;;;;;;;4993557;28;20105;-59
2022/01/28 12:50:02;;;;;;;44.25;29.60;;;;;;;;;;4991326;28;20066;-59
2022/01/28 12:52:30;;;;;;;46.17;29.58;;;;;;;;;;4988602;28;20113;-58
2022/01/28 12:54:56;;;;;;;41.45;28.65;;;;;;;;;;4986046;28;20093;-58
2022/01/28 12:57:22;;;;;;;44.22;28.85;;;;;;;;;;4989508;28;20042;-59
2022/01/28 12:59:49;;;;;;;40.60;27.67;;;;;;;;;;4987449;28;20038;-58
2022/01/28 13:02:16;;;;;;;40.78;27.42;;;;;;;;;;4997794;28;20045;-58
2022/01/28 13:05:11;;;;;;;42.03;27.75;;;;;;;;;;5007180;28;20058;-59
2022/01/28 13:10:26;;;;;;;38.75;26.60;;;;;;;;;;4991844;28;20132;-58
2022/01/28 13:13:01;;;;;;;40.78;26.77;;;;;;;;;;4991368;28;20408;-58
2022/01/28 13:15:27;;;;;;;;;;;;;;;;;;4987071;28;20042;-58
2022/01/28 13:17:55;;;;;;;42.10;27.75;;;;;;;;;;4987846;28;20378;-58
2022/01/28 13:20:21;;;;;;;42.90;26.95;;;;;;;;;;4995477;28;20454;-57
2022/01/28 13:22:51;;;;;;;35.92;25.60;;;;;;;;;;4996949;28;20034;-57
2022/01/28 13:25:23;;;;;;;41.10;27.63;;;;;;;;;;4988890;28;20035;-58
2022/01/28 13:27:54;;;;;;;41.17;28.67;;;;;;;;;;4984484;28;20488;-58
2022/01/28 13:30:20;;;;;;;39.65;27.92;;;;;;;;;;4986139;28;20388;-55
2022/01/28 13:32:49;;;;;;;44.50;30.70;;;;;;;;;;4989765;28;20112;-57
2022/01/28 13:35:18;;;;;;;46.90;30.55;;;;;;;;;;5013155;28;20046;-59
2022/01/28 13:37:48;;;;;;;44.92;29.90;;;;;;;;;;5037447;28;20376;-58
2022/01/28 13:40:24;;;;;;;43.33;30.20;;;;;;;;;;5030667;28;20129;-57
2022/01/28 13:43:09;;;;;;;38.70;29.67;;;;;;;;;;5005839;28;20493;-56
2022/01/28 13:45:57;;;;;;;43.55;30.67;;;;;;;;;;4999897;28;20412;-58
2022/01/28 13:48:33;;;;;;;42.50;29.60;;;;;;;;;;5007065;28;20050;-58
2022/01/28 13:51:06;;;;;;;43.42;30.17;;;;;;;;;;5005641;28;20041;-58
2022/01/28 13:56:36;;;;;;;46.08;30.08;;;;;;;;;;4983647;28;20412;-58
2022/01/28 13:59:13;;;;;;;41.95;30.00;;;;;;;;;;5001831;28;20054;-58
2022/01/28 14:01:44;;;;;;;41.58;29.85;;;;;;;;;;5005428;28;20068;-59
2022/01/28 14:04:19;;;;;;;37.92;28.10;;;;;;;;;;5005165;28;21141;-58
2022/01/28 14:06:45;;;;;;;41.15;28.80;;;;;;;;;;5001478;28;20042;-59
2022/01/28 14:09:14;;;;;;;41.78;30.30;;;;;;;;;;4995620;28;20043;-59
2022/01/28 14:11:46;;;;;;;47.05;31.00;;;;;;;;;;4973362;28;20058;-59
2022/01/28 14:14:20;;;;;;;42.70;29.40;;;;;;;;;;5001544;28;20061;-59
2022/01/28 14:16:56;;;;;;;46.13;31.98;;;;;;;;;;5018379;28;20104;-58
2022/01/28 14:19:26;;;;;;;44.10;29.42;;;;;;;;;;5002959;28;20049;-59
2022/01/28 14:21:53;;;;;;;43.45;29.15;;;;;;;;;;5003057;28;20046;-57
2022/01/28 14:24:23;;;;;;;41.45;28.17;;;;;;;;;;4985936;28;20070;-58
2022/01/28 14:29:51;;;;;;;42.65;29.60;;;;;;;;;;4978738;28;20377;-57
2022/01/28 14:32:19;;;;;;;41.42;28.45;;;;;;;;;;4996891;28;20073;-58
2022/01/28 14:34:47;;;;;;;44.60;28.48;;;;;;;;;;4999267;28;20046;-59
2022/01/28 14:37:14;;;;;;;42.40;28.27;;;;;;;;;;5004199;28;20038;-57
2022/01/28 14:39:41;;;;;;;42.88;27.48;;;;;;;;;;5001961;28;20091;-59
2022/01/28 14:42:08;;;;;;;40.55;29.38;;;;;;;;;;4999145;28;20510;-58
2022/01/28 14:44:35;;;;;;;44.72;31.42;;;;;;;;;;5008715;28;20060;-57
2022/01/28 14:47:01;;;;;;;42.33;29.30;;;;;;;;;;5034483;28;20034;-59
2022/01/28 14:49:27;;;;;;;43.70;29.17;;;;;;;;;;5002073;28;20068;-60
2022/01/28 14:51:57;;;;;;;43.13;28.52;;;;;;;;;;5004387;28;20749;-59
2022/01/28 14:54:26;;;;;;;46.53;29.13;;;;;;;;;;5004792;28;20045;-59
2022/01/28 14:56:56;;;;;;;40.75;28.65;;;;;;;;;;5003644;28;20053;-60
2022/01/28 14:59:23;;;;;;;41.97;27.02;;;;;;;;;;5000311;28;20046;-58
2022/01/28 15:01:50;;;;;;;45.97;29.42;;;;;;;;;;5001326;28;20049;-58
2022/01/28 15:04:16;;;;;;;42.65;29.42;;;;;;;;;;4998919;28;20381;-59
2022/01/28 15:06:43;;;;;;;46.15;30.42;;;;;;;;;;5004294;28;20056;-58
2022/01/28 15:09:11;;;;;;;44.90;29.75;;;;;;;;;;4997433;28;20038;-58
2022/01/28 15:11:45;;;;;;;43.08;30.05;;;;;;;;;;5007720;28;20155;-59
2022/01/28 15:14:12;;;;;;;44.47;30.85;;;;;;;;;;4999668;28;20042;-59
2022/01/28 15:16:38;;;;;;;40.03;28.13;;;;;;;;;;5004911;28;20114;-58
2022/01/28 15:19:05;;;;;;;46.45;29.38;;;;;;;;;;5003424;28;20042;-58
2022/01/28 15:21:31;;;;;;;41.27;28.47;;;;;;;;;;4998841;28;20061;-59
2022/01/28 15:23:57;;;;;;;49.13;31.85;;;;;;;;;;5000918;28;20487;-59
2022/01/28 15:26:23;;;;;;;45.22;30.58;;;;;;;;;;5002369;28;20050;-58
2022/01/28 15:29:01;;;;;;;47.90;31.92;;;;;;;;;;4988210;28;20034;-59
2022/01/28 15:36:57;;;;;;;40.45;27.48;;;;;;;;;;5000178;28;20052;-60
2022/01/28 15:39:23;;;;;;;44.20;30.02;;;;;;;;;;5004969;28;20061;-59
2022/01/28 15:41:50;;;;;;;52.22;30.50;;;;;;;;;;5004324;28;20124;-59
2022/01/28 15:44:16;;;;;;;51.07;32.73;;;;;;;;;;5003613;28;20503;-59
2022/01/28 15:46:42;;;;;;;43.03;29.13;;;;;;;;;;5007801;28;20100;-60
2022/01/28 15:49:09;;;;;;;45.27;30.20;;;;;;;;;;4988014;28;20043;-58
2022/01/28 15:51:35;;;;;;;45.73;30.17;;;;;;;;;;4987029;28;20038;-57
2022/01/28 15:54:02;;;;;;;44.58;30.35;;;;;;;;;;4979655;28;20109;-59
2022/01/28 15:56:28;;;;;;;46.73;31.30;;;;;;;;;;4983652;28;20046;-58
2022/01/28 15:59:26;;;;;;;46.10;30.80;;;;;;;;;;4992288;28;20039;-58
2022/01/28 16:02:05;;;;;;;43.97;29.73;;;;;;;;;;5017633;28;20066;-58
2022/01/28 16:04:38;;;;;;;44.93;30.03;;;;;;;;;;4983640;28;20093;-59